Aérodrome :
LOGIN :

S'inscrire | Disclaimer

   EN    FR    IT 

 










Légende :    VFR   VFR Marginal   IFR   IFR Intensif   IFR Très Intensif
Visi : 
Plafond : 
>= 8 km
>= 3000ft
5 à 8 km
1000 à 3000 ft
1500m à 5 km
500 à 1000 ft
800 à 1500m
200 à 500 ft
< 800m
< 200 ft
Symboles :   Orages  Brouillard  Fortes neiges  Fortes précipitations  Vent > 20 kt
SIGMETs :   Divers  Orages  Givrage  Turbulence  Onde Orograph.  Cendres Volcan.







- Altitude de l'aérodrome : 20 ft


EBFN - Koksijde

DERNIER METAR :
  • 111325Z 23003KT 9999 FEW030 09/01 Q1025 BLU BLU

METARs EXPIRÉS :
  • 111255Z 22003KT 9999 FEW030 09/01 Q1025 BLU BLU
  • 111225Z 22004KT 9999 FEW030 08/02 Q1025 BLU BLU
  • 111155Z 22004KT 9999 FEW030 08/03 Q1026 BLU BLU
  • 111125Z 21004KT 9999 FEW030 07/03 Q1026 BLU BLU
  • 111055Z 21004KT 9999 FEW030 07/03 Q1026 BLU BLU

TAF TAF EBFN
Valide du 11 à 13h jusqu'au 11 à 22h UTC


111141Z 1113/1122 22005KT 9999 FEW025
TEMPO 1113/1118 SCT020
Pas de NOTAMs connus pour ce terrain.



MET'MAP, la Météo Aéronautique d'un coup d'oeil ! - Copyright ORBIFLY Décembre 2007 - Disclaimer

ORBIFLY MET'MAP TEAM :

Programmation & Développement : Alexandra Zaïnal
Conception & Développement : Baudouin d'Aumeries
Co-Programmation & Développement : Marc-Olivier Méhu
Soutien technique & logistique : Manuel Goepfert

Contact : metmap@orbifly.com




SOURCES & CREDITS :

   NOAA